Terminal Aerodrome Forecast
Issued by NWS Wakefield, VA

Home | Current Version | Previous Version | Text Only | Print | Product List | Glossary On
Versions: 1 2 3 4 5 6 7 8 9 10 11 12 13 14 15 16
000
FTUS41 KAKQ 101200 AAA
TAFORF
TAF AMD
KORF 101259Z 1013/1112 21010KT P6SM SCT010 SCT100
      TEMPO 1013/1014 5SM BR BKN009
     FM101400 20009KT P6SM BKN030 BKN150
     FM101900 22007KT P6SM OVC040
      TEMPO 1019/1022 4SM TSRA OVC030CB=

USA.gov is the U.S. government's official web portal to all federal, state and local government web resources and services.